Time;durP1;ratioP1;P1;durP2;ratioP2;P2;SDS_P1;SDS_P2;PMS_P1;PMS_P2;Temp;Humidity;BMP_temperature;BMP_pressure;BME280_temperature;BME280_humidity;BME280_pressure;Samples;Min_cycle;Max_cycle;Signal;HPM_P1;HPM_P2
2022/08/11 00:01:55;;;;;;;1.27;1.05;;;;;;;19.37;49.97;101734.44;5067165;28;20107;-87
2022/08/11 00:04:26;;;;;;;3.10;1.40;;;;;;;19.34;50.38;101734.53;5059612;28;20075;-85
2022/08/11 00:06:54;;;;;;;2.65;1.65;;;;;;;19.30;50.45;101732.88;5064637;28;20108;-85
2022/08/11 00:09:32;;;;;;;1.70;1.60;;;;;;;19.25;50.55;101726.81;5064284;28;20148;-87
2022/08/11 00:11:59;;;;;;;4.28;1.33;;;;;;;19.19;50.97;101730.53;5090134;28;20052;-86
2022/08/11 00:14:30;;;;;;;2.42;1.75;;;;;;;19.16;51.26;101738.56;5079336;28;20039;-85
2022/08/11 00:17:10;;;;;;;3.60;1.70;;;;;;;19.15;51.66;101734.16;5083462;28;20355;-84
2022/08/11 00:19:46;;;;;;;3.38;1.10;;;;;;;19.10;52.02;101723.69;5063063;28;20908;-84
2022/08/11 00:22:21;;;;;;;2.63;1.50;;;;;;;19.04;52.03;101725.66;5043406;28;20122;-86
2022/08/11 00:24:49;;;;;;;5.30;1.50;;;;;;;18.98;52.00;101727.56;5062834;28;20102;-85
2022/08/11 00:27:17;;;;;;;1.70;1.60;;;;;;;18.96;52.23;101728.50;5062966;28;20040;-86
2022/08/11 00:29:54;;;;;;;1.50;1.40;;;;;;;18.96;52.61;101728.50;5091083;28;20037;-85
2022/08/11 00:32:23;;;;;;;2.72;1.48;;;;;;;18.91;52.68;101725.97;5067158;28;20092;-88
2022/08/11 00:34:53;;;;;;;1.60;1.50;;;;;;;18.86;52.75;101730.47;5071326;28;20161;-86
2022/08/11 00:37:25;;;;;;;3.03;1.13;;;;;;;18.82;52.96;101728.81;5046096;28;20045;-85
2022/08/11 00:39:55;;;;;;;1.92;1.23;;;;;;;18.78;53.03;101730.69;5063786;28;20076;-85
2022/08/11 00:42:58;;;;;;;3.50;1.77;;;;;;;18.76;54.09;101737.81;5057909;28;20131;-88
2022/08/11 00:45:50;;;;;;;1.63;1.52;;;;;;;18.71;53.91;101731.78;5045382;28;20054;-86
2022/08/11 00:48:33;;;;;;;2.63;1.33;;;;;;;18.68;54.05;101729.19;5058563;28;20146;-86
2022/08/11 00:51:52;;;;;;;2.77;1.47;;;;;;;18.65;54.28;101730.13;5067021;28;20041;-86
2022/08/11 00:55:25;;;;;;;3.03;1.90;;;;;;;18.64;54.59;101727.50;5044342;28;20362;-88
2022/08/11 00:58:19;;;;;;;3.13;1.15;;;;;;;18.59;54.11;101725.00;5071131;28;20066;-85
2022/08/11 01:01:16;;;;;;;1.60;1.30;;;;;;;18.55;54.01;101725.09;5077585;28;20415;-85
2022/08/11 01:04:19;;;;;;;1.60;1.50;;;;;;;18.52;53.99;101726.03;5086439;28;20094;-87
2022/08/11 01:07:42;;;;;;;1.65;1.52;;;;;;;18.52;54.11;101728.69;5086899;28;20045;-84
2022/08/11 01:10:35;;;;;;;3.55;1.20;;;;;;;18.51;53.57;101730.50;5051183;28;20695;-85
2022/08/11 01:13:39;;;;;;;2.78;1.60;;;;;;;18.51;53.31;101725.19;5071672;28;20050;-83
2022/08/11 01:16:53;;;;;;;1.63;0.77;;;;;;;18.50;52.85;101730.53;5068223;28;20151;-84
2022/08/11 01:20:04;;;;;;;1.63;1.08;;;;;;;18.45;53.38;101733.28;5068924;28;20052;-84
2022/08/11 01:23:09;;;;;;;1.40;1.30;;;;;;;18.45;53.33;101741.25;5081607;28;20082;-84
2022/08/11 01:26:18;;;;;;;1.20;1.10;;;;;;;18.44;53.37;101728.88;5083550;28;20055;-85
2022/08/11 01:29:57;;;;;;;5.25;1.50;;;;;;;18.42;53.54;101735.13;5058927;28;20071;-87
2022/08/11 01:33:04;;;;;;;2.85;1.38;;;;;;;18.37;54.22;101729.06;5070439;28;20048;-87
2022/08/11 01:36:21;;;;;;;2.00;1.20;;;;;;;18.31;54.66;101732.75;5069116;28;20048;-85
2022/08/11 01:39:18;;;;;;;2.15;1.17;;;;;;;18.27;54.43;101726.66;5066939;28;20049;-85
2022/08/11 01:45:37;;;;;;;3.25;1.20;;;;;;;18.18;54.83;101729.53;5067000;28;20123;-84
2022/08/11 01:48:36;;;;;;;3.63;0.95;;;;;;;18.14;54.90;101727.84;5065052;28;20800;-85
2022/08/11 01:51:20;;;;;;;1.05;1.00;;;;;;;18.09;55.26;101733.25;5062840;28;20435;-86
2022/08/11 01:54:06;;;;;;;0.95;0.95;;;;;;;18.04;55.40;101728.97;5057304;28;20039;-84
2022/08/11 01:57:07;;;;;;;3.30;1.35;;;;;;;17.98;55.28;101735.31;5059278;28;20128;-85
2022/08/11 01:59:52;;;;;;;2.03;1.08;;;;;;;17.95;56.03;101738.88;5061235;28;20039;-86
2022/08/11 02:05:48;;;;;;;1.85;1.45;;;;;;;17.95;55.45;101728.28;5064507;28;20041;-85
2022/08/11 02:08:36;;;;;;;2.05;1.52;;;;;;;17.95;55.54;101733.59;5079587;28;20072;-86
2022/08/11 02:11:32;;;;;;;7.07;1.13;;;;;;;17.98;55.12;101732.66;5082787;28;20017;-86
2022/08/11 02:14:15;;;;;;;2.00;0.70;;;;;;;17.97;55.12;101728.25;5068976;28;20104;-85
2022/08/11 02:17:17;;;;;;;7.53;3.05;;;;;;;17.95;55.32;101730.03;5083092;28;20062;-86
2022/08/11 02:25:58;;;;;;;1.67;1.33;;;;;;;17.85;55.57;101716.97;5047083;28;20135;-85
2022/08/11 02:28:53;;;;;;;1.80;1.27;;;;;;;17.82;55.67;101726.75;5056682;28;20051;-86
2022/08/11 02:34:55;;;;;;;3.75;0.98;;;;;;;17.75;55.91;101718.09;5059075;28;20044;-86
2022/08/11 02:37:46;;;;;;;4.13;1.38;;;;;;;17.73;55.91;101726.97;5059016;28;20083;-86
2022/08/11 02:40:35;;;;;;;1.38;1.10;;;;;;;17.69;56.56;101728.81;5057502;28;20127;-86
2022/08/11 02:43:24;;;;;;;2.10;1.23;;;;;;;17.67;56.40;101728.00;5072940;28;20032;-85
2022/08/11 02:46:31;;;;;;;1.50;1.30;;;;;;;17.65;56.44;101732.44;5077273;28;20025;-87
2022/08/11 02:52:17;;;;;;;1.77;1.65;;;;;;;17.53;56.82;101730.91;5083499;28;20047;-86
2022/08/11 02:55:20;;;;;;;4.40;1.58;;;;;;;17.49;57.17;101735.41;5067071;28;20075;-85
2022/08/11 02:58:03;;;;;;;1.50;1.40;;;;;;;17.45;57.04;101732.84;5071738;28;20044;-84
2022/08/11 03:00:50;;;;;;;2.95;1.40;;;;;;;17.43;57.20;101737.31;5066660;28;20384;-83
2022/08/11 03:03:36;;;;;;;2.83;1.10;;;;;;;17.39;57.87;101739.16;5061665;28;20771;-86
2022/08/11 03:06:38;;;;;;;1.25;1.15;;;;;;;17.30;58.06;101728.72;5067712;28;20036;-85
2022/08/11 03:09:17;;;;;;;1.48;1.10;;;;;;;17.25;58.15;101731.47;5078617;28;20065;-86
2022/08/11 03:18:31;;;;;;;1.52;1.42;;;;;;;17.14;58.68;101737.00;5069241;28;20490;-85
2022/08/11 03:21:24;;;;;;;1.98;1.38;;;;;;;17.10;58.85;101737.94;5066923;28;20352;-86
2022/08/11 03:24:11;;;;;;;4.68;1.63;;;;;;;17.07;59.11;101731.84;5062706;28;20048;-87
2022/08/11 03:27:12;;;;;;;4.32;1.27;;;;;;;17.02;59.28;101734.56;5080206;28;20109;-86
2022/08/11 03:30:19;;;;;;;2.85;1.80;;;;;;;17.02;59.63;101737.22;5071860;28;20040;-85
2022/08/11 03:41:41;;;;;;;1.98;1.33;;;;;;;16.83;60.02;101731.34;5076875;28;20036;-85
2022/08/11 03:43:28;;;;;;;2.65;1.35;;;;;;;16.82;59.85;101745.47;5053325;28;20048;-86
2022/08/11 03:46:27;;;;;;;1.83;1.58;;;;;;;16.79;60.53;101730.53;5062467;28;20037;-84
2022/08/11 03:49:45;;;;;;;4.80;1.90;;;;;;;16.79;60.24;101730.53;5044727;28;20041;-86
2022/08/11 03:53:21;;;;;;;3.13;1.20;;;;;;;16.73;60.76;101737.72;5061767;28;20056;-85
2022/08/11 03:56:48;;;;;;;1.65;1.52;;;;;;;16.68;60.83;101730.72;5058496;28;20451;-85
2022/08/11 03:59:56;;;;;;;1.67;1.58;;;;;;;16.68;60.97;101737.78;5075493;28;20052;-86
2022/08/11 04:02:52;;;;;;;2.00;1.45;;;;;;;16.67;60.96;101731.63;5061720;28;20152;-87
2022/08/11 04:05:52;;;;;;;2.13;1.92;;;;;;;16.64;61.06;101733.44;5078349;28;20054;-86
2022/08/11 04:08:52;;;;;;;6.75;1.60;;;;;;;16.61;61.21;101734.38;5092016;28;20071;-85
2022/08/11 04:11:48;;;;;;;4.82;1.63;;;;;;;16.58;61.56;101734.41;5083203;28;20050;-86
2022/08/11 04:18:25;;;;;;;3.13;1.52;;;;;;;16.55;61.87;101737.09;5064127;28;20127;-85
2022/08/11 04:21:02;;;;;;;5.03;1.70;;;;;;;16.54;61.75;101735.34;5047112;28;20118;-84
2022/08/11 04:24:08;;;;;;;7.40;2.10;;;;;;;16.53;62.12;101731.84;5016936;28;20068;-85
2022/08/11 04:27:13;;;;;;;2.40;1.60;;;;;;;16.53;62.34;101725.69;5021943;28;20036;-86
2022/08/11 04:30:16;;;;;;;1.50;1.40;;;;;;;16.52;62.47;101729.25;5030004;28;20044;-85
2022/08/11 04:33:37;;;;;;;2.08;1.77;;;;;;;16.49;62.83;101732.81;5022768;28;20041;-85
2022/08/11 04:40:00;;;;;;;4.07;2.00;;;;;;;16.54;63.60;101732.72;5044745;28;20094;-86
2022/08/11 04:43:21;;;;;;;4.80;2.83;;;;;;;16.54;63.05;101741.53;5035074;28;20095;-86
2022/08/11 04:46:26;;;;;;;4.68;2.10;;;;;;;16.55;63.38;101734.47;5030600;28;20141;-84
2022/08/11 05:06:11;;;;;;;4.47;1.80;;;;;;;16.77;62.91;101737.63;5016630;28;20232;-87
2022/08/11 05:09:28;;;;;;;4.82;2.53;;;;;;;16.78;63.07;101733.19;5051788;28;20030;-85
2022/08/11 05:12:36;;;;;;;4.00;2.42;;;;;;;16.79;63.19;101729.66;5035439;28;20048;-84
2022/08/11 05:35:47;;;;;;;3.03;2.70;;;;;;;17.06;62.27;101732.75;4972800;28;20126;-85
2022/08/11 05:58:03;;;;;;;5.53;2.30;;;;;;;17.36;61.66;101739.19;5033855;28;20067;-86
2022/08/11 06:00:30;;;;;;;3.55;2.30;;;;;;;17.44;61.41;101741.69;5043027;28;20051;-84
2022/08/11 06:03:06;;;;;;;7.95;2.58;;;;;;;17.51;61.37;101741.53;5055358;28;20041;-86
2022/08/11 06:05:40;;;;;;;3.42;1.85;;;;;;;17.59;61.34;101741.38;5019923;28;20037;-88
2022/08/11 06:08:08;;;;;;;2.22;2.00;;;;;;;17.65;60.75;101740.38;5054550;28;20044;-85
2022/08/11 06:10:44;;;;;;;6.03;4.07;;;;;;;17.72;60.65;101741.09;5043249;28;20041;-86
2022/08/11 06:13:16;;;;;;;4.18;1.95;;;;;;;17.77;60.32;101740.13;5027375;28;20048;-86
2022/08/11 06:15:50;;;;;;;3.78;2.28;;;;;;;17.80;60.25;101744.50;5025816;28;20077;-85
2022/08/11 06:18:22;;;;;;;5.50;1.60;;;;;;;17.86;59.88;101741.72;5026010;28;20122;-85
2022/08/11 06:20:52;;;;;;;2.85;1.85;;;;;;;17.94;60.15;101747.72;5060388;28;20639;-85
2022/08/11 06:23:23;;;;;;;3.28;1.50;;;;;;;18.01;59.76;101740.50;5076696;28;20064;-87
2022/08/11 06:25:53;;;;;;;4.05;1.70;;;;;;;18.03;59.54;101738.72;5062834;28;20545;-87
2022/08/11 06:28:31;;;;;;;5.03;1.92;;;;;;;18.07;59.68;101735.09;5056169;28;20078;-85
2022/08/11 06:30:59;;;;;;;2.80;2.25;;;;;;;18.18;59.21;101732.19;5059579;28;20092;-86
2022/08/11 06:33:50;;;;;;;2.08;1.83;;;;;;;18.25;59.09;101728.50;5073551;28;20044;-85
2022/08/11 06:36:33;;;;;;;3.70;1.40;;;;;;;18.31;58.95;101725.66;5061212;28;20048;-85
2022/08/11 06:39:33;;;;;;;4.00;2.08;;;;;;;18.41;58.86;101728.97;5043753;28;20076;-86
2022/08/11 06:42:11;;;;;;;2.80;1.80;;;;;;;18.51;58.71;101732.25;5055901;28;21499;-85
2022/08/11 06:44:46;;;;;;;2.60;2.08;;;;;;;18.58;58.42;101728.56;5061519;28;20044;-84
2022/08/11 06:47:16;;;;;;;3.10;1.88;;;;;;;18.66;58.25;101731.88;5076938;28;20046;-86
2022/08/11 06:52:37;;;;;;;5.13;1.85;;;;;;;18.92;57.67;101742.75;5056559;28;20039;-85
2022/08/11 06:55:14;;;;;;;2.33;1.52;;;;;;;19.03;57.22;101738.03;5060005;28;20037;-84
2022/08/11 07:00:36;;;;;;;3.58;1.70;;;;;;;19.36;55.99;101735.38;5047810;28;20897;-86
2022/08/11 07:03:16;;;;;;;4.53;2.03;;;;;;;19.59;55.31;101734.66;5049947;28;20067;-86
2022/08/11 07:06:01;;;;;;;2.05;1.23;;;;;;;20.01;54.41;101738.75;5053151;28;20117;-85
2022/08/11 07:28:59;;;;;;;3.13;1.67;;;;;;;24.73;42.32;101738.28;5072093;28;20104;-84
2022/08/11 07:31:34;;;;;;;1.90;1.50;;;;;;;24.93;41.62;101732.78;5064496;28;20049;-87
2022/08/11 07:34:17;;;;;;;2.95;1.70;;;;;;;25.14;41.16;101729.06;5080537;28;20119;-85
2022/08/11 07:36:51;;;;;;;3.30;1.58;;;;;;;25.58;40.79;101729.34;5064643;28;21334;-85
2022/08/11 07:39:23;;;;;;;3.25;2.00;;;;;;;25.99;39.89;101727.94;5061963;28;20051;-86
2022/08/11 07:41:56;;;;;;;3.58;1.40;;;;;;;26.23;38.86;101739.13;5059972;28;20141;-86
2022/08/11 07:44:28;;;;;;;3.78;2.33;;;;;;;26.71;38.44;101725.59;5060130;28;20059;-86
2022/08/11 07:52:36;;;;;;;4.75;2.03;;;;;;;27.96;36.39;101730.38;5065077;28;20052;-88
2022/08/11 07:55:15;;;;;;;6.60;2.05;;;;;;;28.27;35.79;101730.22;5060383;28;20041;-88
2022/08/11 08:19:55;;;;;;;6.40;1.83;;;;;;;31.41;30.03;101729.78;5060797;28;20104;-86
2022/08/11 08:22:24;;;;;;;6.05;1.90;;;;;;;31.46;30.02;101732.09;5023172;28;20044;-87
2022/08/11 08:24:52;;;;;;;3.53;1.83;;;;;;;31.75;29.93;101731.63;5057034;28;20040;-87
2022/08/11 08:28:05;;;;;;;3.42;1.75;;;;;;;32.53;28.41;101723.34;5063121;28;20048;-86
2022/08/11 08:30:46;;;;;;;;;;;;;;;33.07;27.78;101724.97;5059267;28;20052;-86
2022/08/11 08:33:31;;;;;;;5.05;1.60;;;;;;;33.42;26.99;101718.28;5064452;28;19934;-87
2022/08/11 08:36:11;;;;;;;6.28;1.70;;;;;;;33.88;26.84;101723.28;5069532;28;20028;-89
2022/08/11 08:38:51;;;;;;;3.63;2.15;;;;;;;34.07;26.04;101725.16;5073082;28;20085;-89
2022/08/11 08:41:25;;;;;;;2.83;1.92;;;;;;;33.38;26.34;101729.56;5069335;28;20048;-88
2022/08/11 08:43:55;;;;;;;8.63;2.40;;;;;;;33.23;27.25;101727.22;5064609;28;20036;-88
2022/08/11 08:46:30;;;;;;;5.90;2.50;;;;;;;33.81;26.89;101723.00;5083248;28;20040;-87
2022/08/11 08:49:02;;;;;;;5.00;2.10;;;;;;;34.44;25.86;101714.44;5073029;28;20083;-86
2022/08/11 08:51:36;;;;;;;5.45;1.98;;;;;;;35.31;25.22;101722.50;5082012;28;20058;-87
2022/08/11 08:54:10;;;;;;;4.72;1.92;;;;;;;35.87;24.26;101723.38;5042001;28;20124;-87
2022/08/11 08:56:40;;;;;;;4.60;2.13;;;;;;;36.17;23.78;101713.09;5056420;28;20143;-87
2022/08/11 08:59:08;;;;;;;5.50;1.80;;;;;;;36.41;23.44;101717.94;5056843;28;20841;-84
2022/08/11 09:02:00;;;;;;;9.18;2.40;;;;;;;36.96;22.36;101717.78;5066953;28;20109;-84
2022/08/11 09:04:27;;;;;;;3.30;2.28;;;;;;;36.80;22.04;101713.91;5076144;28;20125;-85
2022/08/11 09:07:11;;;;;;;2.17;1.73;;;;;;;36.79;22.86;101714.91;5061998;28;20072;-87
2022/08/11 09:09:45;;;;;;;3.08;1.60;;;;;;;36.46;22.49;101713.88;5064021;28;20039;-84
2022/08/11 09:12:12;;;;;;;4.55;2.15;;;;;;;36.36;22.36;101711.22;5063656;28;20036;-84
2022/08/11 09:15:02;;;;;;;4.43;1.80;;;;;;;36.98;21.80;101702.13;5071578;28;20064;-87
2022/08/11 09:17:45;;;;;;;5.03;1.83;;;;;;;37.48;20.73;101701.28;5072087;28;20257;-84
2022/08/11 09:20:23;;;;;;;;;;;;;;;37.92;20.39;101702.97;5065236;28;20087;-87
2022/08/11 09:28:29;;;;;;;1.30;1.15;;;;;;;38.68;19.21;101689.09;5077973;28;20432;-85
2022/08/11 09:33:43;;;;;;;2.10;1.15;;;;;;;39.47;18.00;101693.78;5052841;28;20063;-86
2022/08/11 09:44:45;;;;;;;2.47;1.10;;;;;;;39.86;15.86;101685.50;5078825;28;20051;-84
2022/08/11 09:45:13;;;;;;;3.75;1.58;;;;;;;39.74;16.43;101683.34;5061057;28;20132;-84
2022/08/11 09:47:40;;;;;;;1.85;1.13;;;;;;;40.47;16.14;101686.50;5063983;28;20044;-88
2022/08/11 09:50:09;;;;;;;7.20;1.65;;;;;;;40.92;15.08;101681.91;5061196;28;20044;-89
2022/08/11 09:52:40;;;;;;;2.90;1.10;;;;;;;40.68;15.43;101675.69;5061230;28;20036;-84
2022/08/11 09:55:11;;;;;;;2.77;1.30;;;;;;;40.49;14.95;101673.47;5056175;28;20118;-84
2022/08/11 10:00:36;;;;;;;1.30;0.90;;;;;;;40.35;15.24;101676.03;5067523;28;20048;-84
2022/08/11 10:03:25;;;;;;;1.75;0.85;;;;;;;40.68;15.36;101664.72;5086424;28;20052;-89
2022/08/11 10:08:52;;;;;;;5.35;1.42;;;;;;;40.61;15.23;101652.81;5069156;28;20052;-87
2022/08/11 10:11:23;;;;;;;2.42;1.48;;;;;;;40.25;15.25;101656.22;5086806;28;20060;-87
2022/08/11 10:16:41;;;;;;;0.75;0.75;;;;;;;40.76;14.67;101661.00;5064510;28;20253;-87
2022/08/11 10:19:10;;;;;;;2.10;1.00;;;;;;;41.16;14.58;101650.56;5061912;28;20080;-85
2022/08/11 10:21:39;;;;;;;1.23;1.10;;;;;;;41.66;13.88;101642.47;5046819;28;20055;-87
2022/08/11 10:26:57;;;;;;;1.77;1.20;;;;;;;42.58;14.01;101627.97;5049494;28;20036;-90
2022/08/11 10:35:15;;;;;;;3.85;1.50;;;;;;;41.73;14.45;101623.28;5062992;28;20487;-89
2022/08/11 10:37:49;;;;;;;1.92;1.50;;;;;;;41.88;13.95;101622.38;5045997;28;20040;-86
2022/08/11 10:40:21;;;;;;;1.88;1.13;;;;;;;41.67;14.29;101622.19;5045967;28;20090;-86
2022/08/11 10:43:02;;;;;;;1.00;0.85;;;;;;;41.81;14.39;101614.03;5031387;28;20067;-88
2022/08/11 10:48:27;;;;;;;1.67;1.30;;;;;;;41.72;14.20;101609.72;5032626;28;20041;-88
2022/08/11 10:51:14;;;;;;;1.73;1.10;;;;;;;42.24;13.70;101611.28;5048294;28;20036;-88
2022/08/11 10:59:29;;;;;;;2.55;1.10;;;;;;;42.56;13.55;101602.56;5045893;28;20067;-87
2022/08/11 11:01:57;;;;;;;2.53;1.30;;;;;;;42.12;13.61;101601.84;5054184;28;20041;-87
2022/08/11 11:04:35;;;;;;;2.05;1.23;;;;;;;42.25;13.47;101603.88;5038557;28;21370;-86
2022/08/11 11:07:12;;;;;;;1.95;0.98;;;;;;;41.90;14.04;101598.28;5043159;28;20036;-87
2022/08/11 11:09:47;;;;;;;1.63;0.80;;;;;;;41.96;14.13;101603.84;5042112;28;20043;-85
2022/08/11 11:18:05;;;;;;;1.30;1.30;;;;;;;44.10;12.79;101589.97;5046274;28;20520;-86
2022/08/11 11:20:45;;;;;;;1.45;1.35;;;;;;;44.41;12.14;101591.22;5051492;28;20068;-84
2022/08/11 11:23:26;;;;;;;1.38;1.02;;;;;;;44.23;12.03;101600.13;5063750;28;21173;-87
2022/08/11 11:26:37;;;;;;;2.58;1.13;;;;;;;43.86;12.67;101596.13;5085524;28;20052;-87
2022/08/11 11:29:55;;;;;;;1.85;1.63;;;;;;;43.82;12.08;101592.97;5062557;28;20098;-90
2022/08/11 11:32:44;;;;;;;3.30;1.45;;;;;;;43.66;12.64;101585.94;5045445;28;20037;-92
2022/08/11 11:35:37;;;;;;;3.65;1.63;;;;;;;44.20;12.27;101588.69;5055479;28;20051;-91
2022/08/11 11:38:09;;;;;;;4.35;1.40;;;;;;;44.20;12.44;101602.47;5059401;28;20045;-86
2022/08/11 11:40:37;;;;;;;2.10;1.50;;;;;;;43.75;12.62;101584.69;5074196;28;21157;-86
2022/08/11 11:43:05;;;;;;;3.38;1.20;;;;;;;43.33;12.73;101583.16;5065402;28;20059;-87
2022/08/11 11:45:32;;;;;;;1.45;1.35;;;;;;;44.01;12.41;101574.72;5064412;28;20044;-89
2022/08/11 11:48:01;;;;;;;2.60;1.10;;;;;;;44.88;12.05;101568.94;5058537;28;20494;-87
2022/08/11 11:50:36;;;;;;;1.42;1.20;;;;;;;44.89;11.68;101573.41;5057390;28;20044;-89
2022/08/11 11:53:11;;;;;;;1.77;1.10;;;;;;;44.65;11.66;101576.91;5071252;28;20612;-88
2022/08/11 11:55:38;;;;;;;1.67;1.50;;;;;;;45.07;11.59;101577.31;5059042;28;20119;-88
2022/08/11 12:03:37;;;;;;;2.83;1.13;;;;;;;46.04;10.88;101568.72;5079967;28;20393;-87
2022/08/11 12:06:07;;;;;;;1.58;1.00;;;;;;;46.50;10.87;101574.81;5066740;28;20056;-89
2022/08/11 12:08:37;;;;;;;2.85;1.00;;;;;;;46.97;10.37;101568.66;5078737;28;20044;-89
2022/08/11 12:13:54;;;;;;;1.48;1.40;;;;;;;45.69;10.55;101568.41;5070989;28;20137;-89
2022/08/11 12:16:26;;;;;;;1.98;1.30;;;;;;;45.06;10.75;101553.50;5094860;28;20044;-91
2022/08/11 12:19:06;;;;;;;2.10;1.50;;;;;;;45.15;10.80;101563.28;5089095;28;20056;-89
2022/08/11 12:21:36;;;;;;;4.35;1.67;;;;;;;45.16;11.01;101561.38;5084034;28;20036;-89
2022/08/11 12:29:33;;;;;;;1.30;1.30;;;;;;;47.69;9.69;101542.81;5075337;28;20151;-91
2022/08/11 12:32:00;;;;;;;1.52;1.20;;;;;;;47.70;9.87;101544.47;5055990;28;20044;-89
2022/08/11 12:34:31;;;;;;;1.05;1.00;;;;;;;47.88;9.31;101537.16;5057235;28;20062;-89
2022/08/11 12:37:04;;;;;;;1.42;0.98;;;;;;;48.14;9.61;101530.22;5050052;28;20820;-91
2022/08/11 12:45:28;;;;;;;2.10;0.85;;;;;;;46.54;9.99;101515.13;5069951;28;20039;-90
2022/08/11 13:05:20;;;;;;;1.90;1.30;;;;;;;46.12;10.01;101489.25;5062472;28;20024;-89
2022/08/11 13:07:49;;;;;;;1.38;1.10;;;;;;;46.33;9.85;101490.72;5261139;22;20045;-89
2022/08/11 13:12:46;;;;;;;1.00;1.00;;;;;;;46.39;10.25;101487.00;5372388;22;20080;-89
2022/08/11 13:13:07;;;;;;;1.38;0.98;;;;;;;46.99;10.00;101488.06;5047303;28;20076;-89
2022/08/11 13:15:36;;;;;;;2.45;0.93;;;;;;;46.76;9.88;101483.34;5060310;28;20046;-88
2022/08/11 13:18:06;;;;;;;3.17;1.70;;;;;;;46.48;9.91;101487.53;5038323;28;20029;-89
2022/08/11 13:20:34;;;;;;;1.10;1.05;;;;;;;46.91;9.61;101485.66;5038984;28;20068;-89
2022/08/11 13:23:04;;;;;;;1.05;0.93;;;;;;;47.30;9.67;101480.56;5055081;28;20037;-88
2022/08/11 13:25:32;;;;;;;0.73;0.73;;;;;;;47.81;9.35;101472.63;5023964;28;20383;-88
2022/08/11 13:28:01;;;;;;;2.25;1.08;;;;;;;48.01;9.46;101467.50;5015054;28;20124;-87
2022/08/11 13:33:18;;;;;;;1.45;0.98;;;;;;;49.06;8.43;101457.28;5028175;28;20029;-89
2022/08/11 13:35:52;;;;;;;1.10;1.00;;;;;;;48.48;8.48;101468.44;5010030;28;20034;-88
2022/08/11 13:38:23;;;;;;;0.88;0.88;;;;;;;47.17;9.08;101474.16;5030879;28;20038;-89
2022/08/11 13:40:53;;;;;;;1.95;1.05;;;;;;;46.95;8.97;101467.47;5044801;28;20048;-88
2022/08/11 13:43:22;;;;;;;1.95;1.13;;;;;;;46.67;8.91;101460.66;5012541;28;20041;-88
2022/08/11 13:46:17;;;;;;;1.15;0.98;;;;;;;46.38;8.97;101463.19;4993258;28;20127;-88
2022/08/11 13:48:40;;;;;;;1.55;1.00;;;;;;;46.37;9.37;101455.94;5016545;28;20102;-88
2022/08/11 13:53:56;;;;;;;2.10;1.00;;;;;;;46.14;9.50;101456.66;5013023;28;20478;-89
2022/08/11 13:56:25;;;;;;;2.45;1.13;;;;;;;45.98;9.63;101453.44;5030854;28;20045;-88
2022/08/11 13:58:58;;;;;;;2.50;0.93;;;;;;;46.69;9.28;101456.56;5028978;28;20041;-89
2022/08/11 14:01:32;;;;;;;1.35;1.00;;;;;;;47.34;8.58;101454.88;5028934;28;20148;-88
2022/08/11 14:04:09;;;;;;;4.70;1.15;;;;;;;48.12;8.24;101445.50;5010232;28;20064;-88
2022/08/11 14:06:41;;;;;;;2.75;1.00;;;;;;;47.63;8.77;101449.47;5009635;28;20053;-88
2022/08/11 14:09:09;;;;;;;1.23;1.13;;;;;;;47.34;8.85;101448.47;5009508;28;20103;-88
2022/08/11 14:14:27;;;;;;;0.93;0.85;;;;;;;47.60;8.61;101441.59;5019125;28;20162;-88
2022/08/11 14:19:42;;;;;;;2.40;0.82;;;;;;;47.63;7.98;101435.59;4998982;28;20045;-88
2022/08/11 14:22:08;;;;;;;;;;;;;;;47.73;8.30;101428.59;5008210;28;20783;-88
2022/08/11 14:24:41;;;;;;;1.10;1.00;;;;;;;48.01;8.05;101431.41;5011969;28;19929;-89
2022/08/11 14:27:14;;;;;;;2.85;1.08;;;;;;;48.14;8.10;101418.34;5027677;28;21129;-88
2022/08/11 14:29:44;;;;;;;2.08;1.08;;;;;;;47.62;8.74;101416.44;4990171;28;20120;-89
2022/08/11 14:32:13;;;;;;;1.38;1.25;;;;;;;46.46;9.02;101414.94;4991561;28;20041;-88
2022/08/11 14:34:44;;;;;;;1.08;1.08;;;;;;;46.78;9.02;101412.75;4995186;28;20077;-88
2022/08/11 14:37:16;;;;;;;1.75;1.15;;;;;;;47.11;8.80;101410.50;5021612;28;20056;-89
2022/08/11 14:39:46;;;;;;;4.20;1.05;;;;;;;46.82;9.22;101419.50;5008898;28;20053;-89
2022/08/11 14:48:00;;;;;;;1.73;0.95;;;;;;;46.85;9.28;101407.94;5005388;28;20459;-89
2022/08/11 14:50:30;;;;;;;4.07;1.48;;;;;;;47.30;8.88;101408.47;5018978;28;20057;-88
2022/08/11 14:53:10;;;;;;;1.13;1.10;;;;;;;47.87;8.70;101400.31;5020094;28;20064;-88
2022/08/11 14:58:29;;;;;;;3.17;2.35;;;;;;;46.61;9.28;101404.25;5051576;28;20021;-89
2022/08/11 15:03:05;;;;;;;1.92;1.85;;;;;;;46.45;9.43;101400.22;5023990;28;20052;-89
2022/08/11 15:03:51;;;;;;;1.38;1.27;;;;;;;45.88;9.80;101392.22;5042006;28;20026;-88
2022/08/11 15:06:18;;;;;;;3.30;2.15;;;;;;;45.64;9.91;101394.88;5034766;28;20025;-89
2022/08/11 15:08:56;;;;;;;1.25;1.08;;;;;;;44.63;10.56;101394.03;5037896;28;20038;-89
2022/08/11 15:17:06;;;;;;;0.80;0.70;;;;;;;44.39;11.06;101391.84;4989083;28;20034;-89
2022/08/11 15:17:08;;;;;;;2.53;1.85;;;;;;;43.52;11.11;101388.53;5000317;28;20102;-89
2022/08/11 15:24:18;;;;;;;1.42;1.00;;;;;;;43.22;11.02;101384.34;5008173;28;20058;-88
2022/08/11 15:25:19;;;;;;;4.20;1.35;;;;;;;42.27;12.04;101379.75;4999574;28;20046;-89
2022/08/11 15:39:03;;;;;;;1.77;0.98;;;;;;;41.11;12.81;101369.31;5025162;28;20045;-89
2022/08/11 15:47:29;;;;;;;2.10;1.08;;;;;;;40.34;13.41;101358.00;4987881;28;20146;-88
2022/08/11 15:49:59;;;;;;;1.95;1.13;;;;;;;40.58;13.47;101347.72;5013353;28;20042;-88
2022/08/11 15:52:32;;;;;;;2.73;2.13;;;;;;;40.61;13.12;101348.19;4997159;28;20049;-89
2022/08/11 15:55:01;;;;;;;1.70;1.60;;;;;;;40.57;13.32;101346.84;4991038;28;20109;-89
2022/08/11 16:05:54;;;;;;;2.75;1.50;;;;;;;38.63;14.52;101341.28;4955949;28;20077;-89
2022/08/11 16:08:24;;;;;;;1.13;1.05;;;;;;;37.95;14.44;101339.13;4984808;28;20052;-89
2022/08/11 16:10:55;;;;;;;2.53;1.30;;;;;;;37.42;15.25;101336.06;5026494;28;20471;-89
2022/08/11 16:16:17;;;;;;;1.48;1.48;;;;;;;36.59;15.80;101330.59;5018982;28;20045;-88
2022/08/11 16:18:52;;;;;;;4.45;1.50;;;;;;;35.90;16.24;101329.88;5035627;28;20486;-87
2022/08/11 16:21:24;;;;;;;1.30;1.20;;;;;;;35.10;17.08;101329.03;5016288;28;21215;-87
2022/08/11 16:23:54;;;;;;;4.13;1.65;;;;;;;34.39;17.75;101330.78;5014362;28;20045;-89
2022/08/11 16:26:23;;;;;;;2.83;1.30;;;;;;;33.71;17.98;101326.50;5000399;28;20080;-88
2022/08/11 16:28:57;;;;;;;1.90;1.17;;;;;;;33.16;18.33;101321.78;4994340;28;21294;-88
2022/08/11 16:31:25;;;;;;;1.10;0.95;;;;;;;32.69;18.65;101322.53;5022915;28;20061;-87
2022/08/11 16:33:53;;;;;;;2.42;2.30;;;;;;;32.31;19.28;101324.22;5010265;28;20061;-88
2022/08/11 16:39:09;;;;;;;2.35;1.63;;;;;;;31.64;19.94;101318.41;4997837;28;20161;-88
2022/08/11 16:47:16;;;;;;;1.75;1.60;;;;;;;31.09;20.47;101322.19;5018573;28;20121;-88
2022/08/11 16:49:48;;;;;;;3.42;3.13;;;;;;;30.90;21.04;101324.72;4997086;28;20049;-88
2022/08/11 16:52:16;;;;;;;3.97;2.13;;;;;;;30.68;20.91;101322.00;5013019;28;20034;-88
2022/08/11 16:54:46;;;;;;;2.92;1.30;;;;;;;30.55;21.14;101318.59;5013361;28;20055;-88
2022/08/11 17:00:18;;;;;;;2.67;1.55;;;;;;;30.30;21.59;101315.22;4936822;28;20047;-88
2022/08/11 17:14:38;;;;;;;2.40;2.30;;;;;;;29.94;22.59;101317.22;5030271;28;20084;-87
2022/08/11 17:17:17;;;;;;;2.25;1.73;;;;;;;29.89;22.26;101311.34;5017319;28;20851;-88
2022/08/11 17:19:54;;;;;;;4.43;2.17;;;;;;;29.84;22.61;101305.41;5017010;28;20051;-88
2022/08/11 17:25:10;;;;;;;5.68;4.25;;;;;;;29.74;22.75;101309.84;5009779;28;20385;-88
2022/08/11 17:27:38;;;;;;;3.05;2.58;;;;;;;29.68;23.25;101311.19;5032491;28;20077;-88
2022/08/11 17:30:08;;;;;;;4.63;1.70;;;;;;;29.62;23.65;101307.16;5037064;28;20095;-90
2022/08/11 17:35:40;;;;;;;2.25;1.65;;;;;;;29.52;23.70;101311.56;5018479;28;20502;-89
2022/08/11 17:38:14;;;;;;;2.08;1.90;;;;;;;29.43;24.24;101313.16;5015170;28;20807;-88
2022/08/11 17:48:24;;;;;;;2.08;1.98;;;;;;;29.35;23.83;101308.34;5027174;28;20061;-88
2022/08/11 17:49:21;;;;;;;4.00;1.85;;;;;;;29.16;24.73;101302.66;5040236;28;20052;-87
2022/08/11 18:00:16;;;;;;;2.40;2.20;;;;;;;28.84;25.12;101303.31;5029326;28;20041;-87